createdAt,value
2017-09-15T00:01:01.603Z,1.13
2017-09-15T00:03:28.735Z,1.30
2017-09-15T00:05:55.141Z,1.87
2017-09-15T00:08:21.550Z,2.63
2017-09-15T00:10:47.958Z,2.00
2017-09-15T00:13:14.340Z,4.80
2017-09-15T00:15:40.770Z,0.80
2017-09-15T00:18:07.167Z,1.00
2017-09-15T00:20:33.563Z,2.20
2017-09-15T00:23:00.774Z,0.80
2017-09-15T00:25:27.167Z,1.57
2017-09-15T00:27:53.628Z,0.70
2017-09-15T00:30:20.060Z,3.37
2017-09-15T00:32:46.487Z,0.80
2017-09-15T00:35:12.872Z,0.70
2017-09-15T00:37:39.386Z,1.97
2017-09-15T00:40:05.799Z,1.07
2017-09-15T00:42:32.283Z,0.93
2017-09-15T00:44:58.708Z,1.10
2017-09-15T00:47:25.197Z,0.63
2017-09-15T00:49:51.659Z,0.87
2017-09-15T00:52:18.076Z,0.83
2017-09-15T00:54:44.466Z,2.80
2017-09-15T00:57:10.976Z,1.30
2017-09-15T00:59:37.413Z,1.40
2017-09-15T01:02:03.808Z,1.07
2017-09-15T01:04:30.242Z,2.60
2017-09-15T01:06:57.478Z,0.70
2017-09-15T01:09:23.936Z,1.17
2017-09-15T01:11:50.347Z,1.27
2017-09-15T01:14:16.771Z,2.10
2017-09-15T01:16:43.233Z,1.27
2017-09-15T01:19:09.632Z,2.07
2017-09-15T01:21:36.041Z,0.90
2017-09-15T01:24:02.474Z,2.30
2017-09-15T01:26:29.647Z,1.40
2017-09-15T01:28:56.039Z,0.93
2017-09-15T01:31:22.461Z,1.87
2017-09-15T01:33:48.852Z,1.17
2017-09-15T01:36:15.279Z,0.70
2017-09-15T01:38:41.716Z,0.60
2017-09-15T01:41:08.095Z,0.73
2017-09-15T01:43:34.528Z,0.80
2017-09-15T01:46:00.995Z,1.37
2017-09-15T01:48:27.514Z,0.70
2017-09-15T01:50:54.671Z,2.50
2017-09-15T01:53:21.076Z,0.87
2017-09-15T01:55:47.485Z,2.60
2017-09-15T01:58:13.896Z,1.30
2017-09-15T02:00:40.304Z,0.80
2017-09-15T02:03:06.688Z,1.00
2017-09-15T02:05:33.067Z,1.07
2017-09-15T02:08:00.288Z,0.63
2017-09-15T02:10:26.718Z,1.30
2017-09-15T02:12:53.143Z,1.77
2017-09-15T02:15:19.526Z,1.63
2017-09-15T02:17:45.995Z,0.83
2017-09-15T02:20:12.416Z,1.17
2017-09-15T02:22:38.844Z,3.57
2017-09-15T02:25:05.234Z,2.70
2017-09-15T02:27:32.447Z,1.90
2017-09-15T02:29:58.856Z,2.83
2017-09-15T02:32:25.227Z,1.47
2017-09-15T02:34:51.659Z,1.77
2017-09-15T02:37:18.051Z,1.33
2017-09-15T02:39:44.495Z,1.60
2017-09-15T02:42:10.879Z,0.93
2017-09-15T02:44:38.095Z,1.23
2017-09-15T02:47:05.340Z,0.87
2017-09-15T02:49:31.761Z,0.90
2017-09-15T02:51:58.177Z,1.10
2017-09-15T02:54:24.588Z,1.70
2017-09-15T02:56:51.768Z,3.30
2017-09-15T02:59:18.236Z,2.30
2017-09-15T03:01:44.658Z,1.53
2017-09-15T03:04:11.832Z,1.20
2017-09-15T03:06:38.360Z,1.40
2017-09-15T03:09:04.796Z,1.27
2017-09-15T03:11:31.179Z,1.23
2017-09-15T03:13:57.595Z,2.20
2017-09-15T03:16:24.842Z,1.13
2017-09-15T03:18:51.983Z,1.47
2017-09-15T03:21:19.168Z,1.83
2017-09-15T03:23:45.563Z,2.93
2017-09-15T03:26:11.968Z,1.20
2017-09-15T03:28:38.350Z,1.90
2017-09-15T03:31:04.763Z,3.23
2017-09-15T03:33:31.908Z,1.87
2017-09-15T03:35:58.312Z,1.50
2017-09-15T03:38:25.560Z,1.30
2017-09-15T03:40:51.952Z,1.93
2017-09-15T03:43:18.408Z,1.40
2017-09-15T03:45:44.827Z,2.67
2017-09-15T03:48:11.255Z,1.67
2017-09-15T03:50:37.631Z,1.70
2017-09-15T03:53:04.064Z,1.50
2017-09-15T03:55:31.224Z,1.67
2017-09-15T03:57:57.747Z,1.73
2017-09-15T04:00:24.151Z,1.90
2017-09-15T04:02:50.569Z,1.90
2017-09-15T04:05:17.151Z,1.80
2017-09-15T04:07:43.679Z,1.67
2017-09-15T04:10:10.068Z,1.60
2017-09-15T04:12:36.500Z,1.83
2017-09-15T04:15:02.919Z,1.50
2017-09-15T04:17:30.163Z,2.30
2017-09-15T04:19:56.583Z,2.37
2017-09-15T04:22:23.007Z,1.73
2017-09-15T04:24:49.415Z,1.93
2017-09-15T04:27:15.839Z,2.13
2017-09-15T04:29:42.290Z,2.10
2017-09-15T04:32:08.680Z,1.80
2017-09-15T04:34:35.163Z,2.50
2017-09-15T04:37:02.428Z,2.50
2017-09-15T04:39:28.813Z,2.17
2017-09-15T04:41:55.206Z,1.60
2017-09-15T04:44:22.365Z,2.10
2017-09-15T04:46:49.683Z,1.97
2017-09-15T04:49:16.148Z,1.73
2017-09-15T04:51:42.691Z,1.90
2017-09-15T04:54:09.114Z,1.67
2017-09-15T04:56:36.307Z,2.53
2017-09-15T04:59:02.699Z,1.97
2017-09-15T05:01:29.872Z,4.20
2017-09-15T05:03:56.280Z,2.20
2017-09-15T05:06:22.795Z,1.93
2017-09-15T05:08:49.216Z,2.77
2017-09-15T05:11:15.729Z,2.33
2017-09-15T05:13:42.163Z,2.20
2017-09-15T05:16:08.621Z,1.73
2017-09-15T05:18:35.051Z,1.63
2017-09-15T05:21:01.427Z,2.43
2017-09-15T05:23:28.583Z,2.57
2017-09-15T05:25:54.980Z,3.23
2017-09-15T05:28:21.477Z,2.20
2017-09-15T05:30:47.902Z,2.50
2017-09-15T05:33:14.304Z,2.50
2017-09-15T05:35:41.462Z,2.57
2017-09-15T05:38:07.948Z,3.43
2017-09-15T05:40:34.404Z,2.43
2017-09-15T05:43:00.800Z,2.90
2017-09-15T05:45:27.219Z,4.67
2017-09-15T05:47:53.660Z,2.90
2017-09-15T05:50:20.076Z,2.70
2017-09-15T05:52:46.479Z,2.47
2017-09-15T05:55:13.664Z,3.90
2017-09-15T05:57:40.132Z,3.13
2017-09-15T06:00:06.566Z,3.07
2017-09-15T06:02:32.970Z,2.60
2017-09-15T06:04:59.380Z,5.07
2017-09-15T06:07:25.859Z,4.27
2017-09-15T06:09:52.996Z,2.27
2017-09-15T06:12:19.408Z,3.33
2017-09-15T06:14:45.807Z,2.60
2017-09-15T06:17:12.999Z,2.43
2017-09-15T06:19:39.387Z,1.87
2017-09-15T06:22:05.785Z,3.90
2017-09-15T06:24:32.204Z,2.97
2017-09-15T06:26:58.772Z,2.43
2017-09-15T06:29:25.160Z,3.50
2017-09-15T06:31:51.540Z,3.53
2017-09-15T06:34:17.991Z,3.10
2017-09-15T06:36:45.332Z,2.53
2017-09-15T06:39:11.722Z,2.33
2017-09-15T06:41:38.167Z,3.10
2017-09-15T06:44:04.615Z,3.33
2017-09-15T06:46:31.128Z,7.63
2017-09-15T06:48:57.520Z,4.27
2017-09-15T06:51:24.691Z,3.80
2017-09-15T06:53:51.083Z,2.90
2017-09-15T06:56:17.475Z,3.03
2017-09-15T06:58:43.901Z,2.57
2017-09-15T07:01:10.367Z,4.10
2017-09-15T07:03:37.532Z,2.90
2017-09-15T07:06:03.932Z,2.97
2017-09-15T07:08:30.366Z,3.20
2017-09-15T07:10:56.751Z,2.60
2017-09-15T07:13:23.888Z,4.17
2017-09-15T07:15:51.084Z,2.57
2017-09-15T07:18:17.527Z,2.13
2017-09-15T07:20:43.983Z,3.53
2017-09-15T07:23:10.423Z,2.00
2017-09-15T07:25:36.827Z,2.60
2017-09-15T07:28:03.343Z,2.73
2017-09-15T07:30:29.764Z,2.00
2017-09-15T07:32:56.168Z,1.93
2017-09-15T07:35:22.547Z,3.20
2017-09-15T07:37:48.999Z,11.00
2017-09-15T07:40:15.400Z,2.70
2017-09-15T07:42:41.855Z,2.40
2017-09-15T07:45:08.391Z,3.07
2017-09-15T07:47:34.983Z,2.90
2017-09-15T07:50:02.131Z,3.40
2017-09-15T07:52:29.296Z,2.37
2017-09-15T07:54:55.848Z,2.53
2017-09-15T07:57:22.295Z,2.40
2017-09-15T07:59:48.683Z,2.37
2017-09-15T08:02:15.860Z,2.50
2017-09-15T08:04:42.487Z,2.97
2017-09-15T08:07:08.997Z,2.37
2017-09-15T08:09:36.146Z,2.27
2017-09-15T08:12:03.504Z,3.03
2017-09-15T08:14:30.017Z,3.00
2017-09-15T08:16:57.238Z,3.37
2017-09-15T08:19:23.708Z,2.20
2017-09-15T08:21:50.201Z,2.60
2017-09-15T08:24:16.624Z,2.53
2017-09-15T08:26:43.102Z,2.63
2017-09-15T08:29:09.513Z,1.97
2017-09-15T08:31:36.048Z,2.53
2017-09-15T08:34:02.432Z,3.37
2017-09-15T08:36:29.655Z,3.70
2017-09-15T08:38:56.092Z,2.20
2017-09-15T08:41:22.541Z,2.70
2017-09-15T08:43:48.914Z,2.23
2017-09-15T08:46:15.374Z,2.90
2017-09-15T08:48:41.798Z,2.70
2017-09-15T08:51:08.195Z,2.80
2017-09-15T08:53:34.890Z,2.43
2017-09-15T08:56:01.436Z,5.00
2017-09-15T08:58:27.832Z,4.80
2017-09-15T09:00:54.257Z,2.60
2017-09-15T09:03:20.655Z,3.43
2017-09-15T09:05:47.810Z,3.00
2017-09-15T09:08:15.191Z,2.60
2017-09-15T09:10:42.395Z,3.80
2017-09-15T09:13:08.807Z,3.57
2017-09-15T09:15:35.191Z,2.10
2017-09-15T09:18:05.173Z,2.40
2017-09-15T09:20:31.560Z,3.00
2017-09-15T09:22:57.979Z,2.97
2017-09-15T09:25:24.380Z,2.80
2017-09-15T09:27:51.577Z,2.97
2017-09-15T09:30:18.007Z,3.33
2017-09-15T09:32:44.708Z,3.47
2017-09-15T09:35:11.871Z,4.73
2017-09-15T09:37:39.396Z,2.50
2017-09-15T09:40:05.804Z,3.07
2017-09-15T09:42:32.344Z,2.80
2017-09-15T09:44:58.719Z,3.13
2017-09-15T09:47:25.949Z,5.07
2017-09-15T09:49:53.115Z,11.10
2017-09-15T09:52:20.305Z,3.20
2017-09-15T09:54:46.710Z,2.97
2017-09-15T09:57:14.248Z,4.33
2017-09-15T09:59:40.669Z,4.17
2017-09-15T10:02:07.155Z,3.87
2017-09-15T10:04:33.530Z,3.23
2017-09-15T10:06:59.951Z,3.90
2017-09-15T10:09:27.088Z,5.07
2017-09-15T10:11:53.498Z,3.67
2017-09-15T10:14:19.896Z,4.07
2017-09-15T10:16:47.109Z,3.63
2017-09-15T10:19:13.527Z,3.10
2017-09-15T10:21:39.911Z,3.70
2017-09-15T10:24:06.331Z,5.30
2017-09-15T10:26:32.771Z,3.40
2017-09-15T10:28:59.279Z,5.83
2017-09-15T10:31:25.688Z,4.50
2017-09-15T10:33:52.076Z,3.40
2017-09-15T10:36:18.499Z,3.50
2017-09-15T10:38:44.884Z,4.20
2017-09-15T10:41:11.263Z,4.50
2017-09-15T10:43:37.691Z,3.80
2017-09-15T10:46:04.112Z,3.90
2017-09-15T10:48:30.522Z,5.63
2017-09-15T10:50:56.924Z,5.97
2017-09-15T10:53:24.048Z,4.30
2017-09-15T10:55:50.447Z,4.67
2017-09-15T10:58:22.808Z,3.67
2017-09-15T11:00:49.247Z,4.17
2017-09-15T11:03:15.684Z,4.57
2017-09-15T11:05:42.111Z,4.37
2017-09-15T11:08:08.503Z,5.10
2017-09-15T11:10:35.656Z,5.90
2017-09-15T11:13:02.053Z,3.80
2017-09-15T11:15:28.467Z,4.77
2017-09-15T11:17:55.624Z,4.33
2017-09-15T11:20:22.032Z,4.60
2017-09-15T11:22:48.416Z,4.43
2017-09-15T11:25:14.819Z,4.10
2017-09-15T11:27:41.341Z,3.80
2017-09-15T11:30:07.747Z,5.13
2017-09-15T11:32:34.144Z,4.50
2017-09-15T11:35:00.558Z,4.07
2017-09-15T11:37:26.953Z,4.23
2017-09-15T11:39:53.347Z,3.83
2017-09-15T11:42:20.504Z,4.30
2017-09-15T11:44:47.662Z,4.27
2017-09-15T11:47:14.057Z,3.80
2017-09-15T11:49:40.459Z,4.10
2017-09-15T11:52:06.863Z,3.77
2017-09-15T11:54:33.980Z,3.60
2017-09-15T11:57:00.371Z,4.10
2017-09-15T11:59:26.763Z,8.47
2017-09-15T12:01:53.923Z,3.90
2017-09-15T12:04:21.036Z,8.97
2017-09-15T12:06:47.571Z,7.17
2017-09-15T12:09:13.967Z,4.23
2017-09-15T12:11:40.352Z,3.90
2017-09-15T12:14:06.796Z,3.77
2017-09-15T12:16:33.920Z,4.93
2017-09-15T12:19:00.315Z,4.40
2017-09-15T12:21:26.683Z,3.27
2017-09-15T12:23:53.091Z,4.70
2017-09-15T12:26:19.523Z,4.37
2017-09-15T12:28:45.903Z,3.67
2017-09-15T12:31:13.073Z,3.33
2017-09-15T12:33:39.447Z,9.90
2017-09-15T12:36:05.835Z,5.30
2017-09-15T12:38:32.247Z,4.90
2017-09-15T12:40:58.679Z,4.80
2017-09-15T12:43:25.092Z,4.80
2017-09-15T12:45:52.291Z,9.13
2017-09-15T12:48:18.741Z,4.77
2017-09-15T12:50:45.176Z,4.60
2017-09-15T12:53:11.603Z,4.70
2017-09-15T12:55:38.012Z,3.90
2017-09-15T12:58:05.173Z,3.97
2017-09-15T13:00:31.576Z,4.50
2017-09-15T13:02:58.234Z,3.67
2017-09-15T13:05:24.724Z,3.70
2017-09-15T13:07:51.147Z,6.17
2017-09-15T13:10:17.560Z,2.97
2017-09-15T13:12:43.973Z,2.40
2017-09-15T13:15:10.480Z,2.30
2017-09-15T13:17:37.263Z,2.33
2017-09-15T13:20:03.732Z,3.00
2017-09-15T13:22:30.165Z,5.63
2017-09-15T13:24:57.312Z,5.13
2017-09-15T13:27:23.782Z,2.40
2017-09-15T13:29:50.244Z,2.37
2017-09-15T13:32:16.655Z,2.47
2017-09-15T13:34:43.790Z,2.00
2017-09-15T13:37:10.468Z,2.77
2017-09-15T13:39:37.056Z,3.33
2017-09-15T13:42:04.240Z,2.63
2017-09-15T13:44:30.648Z,2.40
2017-09-15T13:46:57.902Z,2.00
2017-09-15T13:49:25.104Z,2.97
2017-09-15T13:51:51.568Z,2.87
2017-09-15T13:54:18.762Z,2.30
2017-09-15T13:56:45.245Z,2.63
2017-09-15T13:59:11.716Z,2.00
2017-09-15T14:01:38.233Z,3.60
2017-09-15T14:04:05.541Z,2.43
2017-09-15T14:06:32.072Z,2.50
2017-09-15T14:08:58.545Z,3.30
2017-09-15T14:11:25.093Z,3.07
2017-09-15T14:13:51.588Z,2.73
2017-09-15T14:16:18.034Z,2.63
2017-09-15T14:18:44.464Z,3.60
2017-09-15T14:21:10.904Z,4.37
2017-09-15T14:23:37.291Z,3.63
2017-09-15T14:26:04.029Z,3.03
2017-09-15T14:28:30.472Z,3.77
2017-09-15T14:30:56.907Z,4.27
2017-09-15T14:33:23.825Z,3.20
2017-09-15T14:35:50.243Z,3.43
2017-09-15T14:38:16.686Z,4.27
2017-09-15T14:40:43.847Z,5.90
2017-09-15T14:43:11.577Z,3.87
2017-09-15T14:45:38.743Z,3.57
2017-09-15T14:48:05.167Z,3.07
2017-09-15T14:50:31.545Z,2.70
2017-09-15T14:52:57.956Z,2.73
2017-09-15T14:55:25.091Z,3.67
2017-09-15T14:57:51.496Z,3.30
2017-09-15T15:00:17.936Z,2.90
2017-09-15T15:02:44.345Z,2.60
2017-09-15T15:05:10.784Z,3.60
2017-09-15T15:07:37.228Z,3.10
2017-09-15T15:10:03.634Z,5.33
2017-09-15T15:12:30.028Z,3.57
2017-09-15T15:14:57.289Z,6.60
2017-09-15T15:17:24.491Z,4.23
2017-09-15T15:19:51.783Z,3.50
2017-09-15T15:22:18.710Z,5.83
2017-09-15T15:24:45.523Z,5.63
2017-09-15T15:27:12.014Z,4.17
2017-09-15T15:29:39.169Z,3.53
2017-09-15T15:32:06.315Z,3.70
2017-09-15T15:34:32.736Z,2.77
2017-09-15T15:36:59.863Z,3.10
2017-09-15T15:39:26.260Z,4.17
2017-09-15T15:41:54.484Z,2.57
2017-09-15T15:44:20.928Z,5.00
2017-09-15T15:46:47.360Z,3.00
2017-09-15T15:49:14.569Z,3.23
2017-09-15T15:51:41.127Z,3.97
2017-09-15T15:54:07.516Z,3.50
2017-09-15T15:56:34.059Z,2.63
2017-09-15T15:59:00.459Z,2.03
2017-09-15T16:01:27.642Z,2.97
2017-09-15T16:03:54.207Z,2.93
2017-09-15T16:06:21.407Z,2.30
2017-09-15T16:08:47.855Z,3.10
2017-09-15T16:11:14.235Z,2.70
2017-09-15T16:13:40.641Z,2.97
2017-09-15T16:16:07.087Z,4.10
2017-09-15T16:18:33.512Z,2.80
2017-09-15T16:20:59.932Z,2.80
2017-09-15T16:23:27.661Z,4.60
2017-09-15T16:25:54.096Z,3.90
2017-09-15T16:28:20.552Z,2.50
2017-09-15T16:30:46.984Z,3.33
2017-09-15T16:33:13.591Z,2.80
2017-09-15T16:35:40.102Z,3.73
2017-09-15T16:38:12.996Z,4.50
2017-09-15T16:40:46.307Z,4.07
2017-09-15T16:43:19.752Z,4.07
2017-09-15T16:45:52.272Z,3.03
2017-09-15T16:48:25.831Z,2.40
2017-09-15T16:50:53.136Z,2.30
2017-09-15T16:53:19.757Z,3.47
2017-09-15T16:55:46.304Z,3.13
2017-09-15T16:58:13.540Z,3.23
2017-09-15T17:00:40.810Z,3.83
2017-09-15T17:03:08.287Z,4.57
2017-09-15T17:05:34.835Z,4.90
2017-09-15T17:08:01.464Z,2.67
2017-09-15T17:10:28.687Z,3.00
2017-09-15T17:12:55.931Z,4.40
2017-09-15T17:15:23.275Z,3.03
2017-09-15T17:17:49.951Z,4.00
2017-09-15T17:20:16.380Z,3.13
2017-09-15T17:22:42.756Z,3.30
2017-09-15T17:25:09.331Z,2.80
2017-09-15T17:27:35.969Z,2.50
2017-09-15T17:30:03.169Z,3.73
2017-09-15T17:32:29.927Z,3.83
2017-09-15T17:34:56.476Z,3.50
2017-09-15T17:37:23.925Z,4.70
2017-09-15T17:39:51.296Z,4.17
2017-09-15T17:42:18.452Z,4.20
2017-09-15T17:44:45.728Z,4.90
2017-09-15T17:47:12.243Z,6.10
2017-09-15T17:49:38.948Z,4.37
2017-09-15T17:52:06.256Z,5.17
2017-09-15T17:54:32.656Z,4.23
2017-09-15T17:56:59.220Z,4.23
2017-09-15T17:59:25.644Z,4.97
2017-09-15T18:01:52.850Z,4.80
2017-09-15T18:04:19.545Z,5.37
2017-09-15T18:06:46.172Z,6.50
2017-09-15T18:09:13.272Z,6.60
2017-09-15T18:11:39.696Z,5.67
2017-09-15T18:14:06.392Z,9.20
2017-09-15T18:16:33.544Z,4.73
2017-09-15T18:19:00.875Z,3.87
2017-09-15T18:21:28.060Z,4.23
2017-09-15T18:23:55.092Z,5.43
2017-09-15T18:26:22.232Z,4.30
2017-09-15T18:28:48.953Z,3.43
2017-09-15T18:31:15.506Z,5.47
2017-09-15T18:33:41.928Z,5.50
2017-09-15T18:36:08.354Z,6.10
2017-09-15T18:38:34.776Z,7.40
2017-09-15T18:41:01.184Z,6.17
2017-09-15T18:43:27.734Z,6.87
2017-09-15T18:45:54.194Z,5.80
2017-09-15T18:48:20.645Z,9.07
2017-09-15T18:50:47.107Z,6.10
2017-09-15T18:53:13.944Z,7.73
2017-09-15T18:55:40.287Z,8.27
2017-09-15T18:58:06.619Z,6.10
2017-09-15T19:00:32.951Z,5.70
2017-09-15T19:02:59.248Z,7.67
2017-09-15T19:05:26.548Z,7.97
2017-09-15T19:07:52.899Z,6.53
2017-09-15T19:10:19.197Z,8.00
2017-09-15T19:12:45.687Z,8.77
2017-09-15T19:15:11.993Z,7.77
2017-09-15T19:17:38.268Z,8.30
2017-09-15T19:20:05.388Z,9.87
2017-09-15T19:22:31.691Z,8.37
2017-09-15T19:24:58.027Z,6.23
2017-09-15T19:27:24.431Z,8.30
2017-09-15T19:29:50.716Z,9.87
2017-09-15T19:32:16.999Z,7.13
2017-09-15T19:34:43.305Z,8.03
2017-09-15T19:37:09.623Z,8.67
2017-09-15T19:39:36.697Z,8.47
2017-09-15T19:42:03.932Z,7.23
2017-09-15T19:44:30.384Z,6.60
2017-09-15T19:46:56.854Z,6.00
2017-09-15T19:49:23.229Z,5.50
2017-09-15T19:51:49.563Z,5.37
2017-09-15T19:54:15.940Z,4.80
2017-09-15T19:56:43.049Z,5.77
2017-09-15T19:59:09.513Z,5.27
2017-09-15T20:01:36.643Z,5.60
2017-09-15T20:04:02.967Z,5.23
2017-09-15T20:06:29.431Z,5.87
2017-09-15T20:08:56.519Z,4.67
2017-09-15T20:11:22.890Z,4.90
2017-09-15T20:13:49.323Z,6.60
2017-09-15T20:16:15.907Z,6.13
2017-09-15T20:18:42.399Z,7.10
2017-09-15T20:21:09.473Z,5.67
2017-09-15T20:23:35.821Z,11.63
2017-09-15T20:26:02.152Z,9.77
2017-09-15T20:28:28.455Z,7.60
2017-09-15T20:30:55.519Z,8.40
2017-09-15T20:33:21.806Z,10.10
2017-09-15T20:35:48.084Z,10.90
2017-09-15T20:38:14.435Z,8.07
2017-09-15T20:40:41.478Z,7.90
2017-09-15T20:43:08.548Z,14.73
2017-09-15T20:45:34.916Z,5.87
2017-09-15T20:48:01.220Z,6.73
2017-09-15T20:50:27.580Z,8.30
2017-09-15T20:52:53.963Z,7.00
2017-09-15T20:55:21.005Z,7.90
2017-09-15T20:57:48.019Z,7.80
2017-09-15T21:00:14.451Z,8.30
2017-09-15T21:02:40.735Z,6.83
2017-09-15T21:05:07.018Z,6.80
2017-09-15T21:07:33.339Z,7.63
2017-09-15T21:09:59.616Z,7.67
2017-09-15T21:12:26.658Z,6.87
2017-09-15T21:14:53.690Z,6.30
2017-09-15T21:17:20.792Z,7.97
2017-09-15T21:19:47.107Z,6.97
2017-09-15T21:22:13.382Z,6.80
2017-09-15T21:24:39.684Z,8.40
2017-09-15T21:27:06.023Z,5.87
2017-09-15T21:29:32.312Z,6.43
2017-09-15T21:31:58.600Z,6.80
2017-09-15T21:34:25.899Z,7.03
2017-09-15T21:36:52.228Z,5.17
2017-09-15T21:39:18.547Z,6.27
2017-09-15T21:41:45.584Z,6.50
2017-09-15T21:44:12.683Z,8.07
2017-09-15T21:46:38.985Z,8.63
2017-09-15T21:49:12.303Z,5.93
2017-09-15T21:51:38.646Z,6.60
2017-09-15T21:54:04.995Z,5.93
2017-09-15T21:56:31.303Z,7.00
2017-09-15T21:58:57.590Z,5.57
2017-09-15T22:01:23.907Z,7.13
2017-09-15T22:03:56.943Z,7.00
2017-09-15T22:06:23.217Z,6.03
2017-09-15T22:08:49.526Z,6.03
2017-09-15T22:11:15.831Z,5.63
2017-09-15T22:13:42.136Z,6.23
2017-09-15T22:16:09.116Z,6.23
2017-09-15T22:18:35.448Z,6.30
2017-09-15T22:21:01.720Z,6.20
2017-09-15T22:23:28.739Z,7.67
2017-09-15T22:25:55.052Z,6.60
2017-09-15T22:28:21.396Z,5.63
2017-09-15T22:30:47.675Z,5.70
2017-09-15T22:33:13.988Z,8.40
2017-09-15T22:35:41.034Z,6.03
2017-09-15T22:38:08.103Z,6.07
2017-09-15T22:40:34.424Z,6.47
2017-09-15T22:43:01.451Z,7.80
2017-09-15T22:45:27.759Z,10.73
2017-09-15T22:47:54.036Z,7.50
2017-09-15T22:50:20.353Z,8.50
2017-09-15T22:52:47.400Z,7.03
2017-09-15T22:55:14.453Z,7.57
2017-09-15T22:57:47.692Z,7.67
2017-09-15T23:00:14.008Z,6.57
2017-09-15T23:02:40.431Z,5.67
2017-09-15T23:05:06.815Z,6.60
2017-09-15T23:07:33.259Z,7.77
2017-09-15T23:09:59.548Z,6.33
2017-09-15T23:12:25.841Z,6.27
2017-09-15T23:14:53.115Z,6.30
2017-09-15T23:17:19.511Z,6.40
2017-09-15T23:19:46.651Z,6.77
2017-09-15T23:22:13.087Z,7.13
2017-09-15T23:24:39.468Z,6.20
2017-09-15T23:27:05.899Z,5.60
2017-09-15T23:29:32.264Z,6.50
2017-09-15T23:31:58.642Z,7.00
2017-09-15T23:34:25.056Z,8.20
2017-09-15T23:39:41.287Z,6.97
2017-09-15T23:42:07.708Z,6.67
2017-09-15T23:44:34.843Z,6.23
2017-09-15T23:47:01.245Z,6.67
2017-09-15T23:49:27.655Z,7.13
2017-09-15T23:51:54.088Z,6.73
2017-09-15T23:54:20.556Z,6.00
2017-09-15T23:56:46.993Z,6.77
2017-09-15T23:59:13.398Z,8.43
